< < Back
Terminal Aerodrome Forecast


Current Version              Previous Versions:   1  2  3  4  5  6  7  8  9  

Terminal Aerodrome Forecast

191
FTUS44 KMRX 020521
TAFTYS
TAF
KTYS 020521Z 0206/0306 VRB03KT P6SM SCT070
     FM021500 26008KT P6SM SCT050
     FM030100 VRB03KT P6SM SCT070 BKN250=



Latest METAR

063
SAUS80 KWBC 020500 RRC
MTRTYS
METAR KTYS 020453Z 00000KT 10SM FEW070 FEW250 24/18 A3003 RMK AO2 SLP155
T02390178 403170183


USA.gov is the U.S. government's official web portal to all federal, state and local government web resources and services.